TimeCST,TemperatureF,Dew PointF,Humidity,Sea Level PressureIn,VisibilityMPH,Wind Direction,Wind SpeedMPH,Gust SpeedMPH,PrecipitationIn,Events,Conditions,WindDirDegrees,DateUTC
12:51 AM,53.6,53.6,100,30.25,1.8,South,5.8,-,N/A,,Clear,180,2013-01-28 06:51:00
12:58 AM,53.1,53.1,100,30.24,1.0,South,4.6,-,N/A,,Clear,190,2013-01-28 06:58:00
1:20 AM,51.8,51.8,100,30.24,2.0,South,4.6,-,N/A,,Clear,180,2013-01-28 07:20:00
1:22 AM,51.8,51.8,100,30.24,1.0,South,5.8,-,N/A,,Mist,180,2013-01-28 07:22:00
1:29 AM,53.6,51.8,94,30.24,0.5,SSE,5.8,-,N/A,Fog,Fog,150,2013-01-28 07:29:00
1:33 AM,53.6,53.6,100,30.24,1.0,SE,6.9,-,N/A,,Mist,140,2013-01-28 07:33:00
1:35 AM,53.6,53.6,100,30.24,2.5,SSE,6.9,-,N/A,,Partly Cloudy,150,2013-01-28 07:35:00
1:42 AM,55.4,55.4,100,30.24,5.0,SSE,5.8,-,N/A,,Partly Cloudy,160,2013-01-28 07:42:00
1:58 AM,52.0,52.0,100,30.24,3.0,SSE,5.8,-,N/A,,Clear,160,2013-01-28 07:58:00
2:58 AM,57.9,55.9,93,30.22,7.0,SSE,10.4,-,N/A,,Clear,150,2013-01-28 08:58:00
3:58 AM,57.0,55.9,96,30.22,6.0,South,5.8,-,N/A,,Partly Cloudy,190,2013-01-28 09:58:00
4:20 AM,57.2,55.4,94,30.23,5.0,SSE,4.6,-,N/A,,Mostly Cloudy,160,2013-01-28 10:20:00
4:58 AM,57.9,57.0,97,30.25,5.0,SSE,6.9,-,N/A,,Overcast,160,2013-01-28 10:58:00
5:58 AM,57.9,57.0,97,30.25,3.0,South,5.8,-,N/A,,Overcast,190,2013-01-28 11:58:00
6:11 AM,57.2,57.2,100,30.26,3.0,South,5.8,-,N/A,,Overcast,190,2013-01-28 12:11:00
6:26 AM,57.2,57.2,100,30.27,2.5,South,5.8,-,N/A,,Overcast,190,2013-01-28 12:26:00
6:42 AM,57.2,57.2,100,30.27,1.5,South,6.9,-,N/A,,Overcast,190,2013-01-28 12:42:00
6:58 AM,57.0,57.0,100,30.26,1.2,South,8.1,-,N/A,,Overcast,170,2013-01-28 12:58:00
7:29 AM,57.2,57.2,100,30.27,2.5,South,8.1,-,N/A,,Overcast,170,2013-01-28 13:29:00
7:37 AM,57.2,57.2,100,30.27,3.0,South,6.9,-,N/A,,Overcast,170,2013-01-28 13:37:00
7:54 AM,57.2,57.2,100,30.27,4.0,South,6.9,-,N/A,,Overcast,180,2013-01-28 13:54:00
7:58 AM,57.9,57.9,100,30.27,4.0,South,8.1,-,N/A,,Overcast,190,2013-01-28 13:58:00
8:40 AM,57.2,57.2,100,30.28,3.0,South,10.4,-,N/A,,Overcast,180,2013-01-28 14:40:00
8:49 AM,59.0,57.2,94,30.28,2.0,South,6.9,-,N/A,,Overcast,190,2013-01-28 14:49:00
8:58 AM,59.0,57.9,96,30.28,2.0,Variable,5.8,-,N/A,,Overcast,0,2013-01-28 14:58:00
9:10 AM,59.0,57.2,94,30.29,4.0,South,6.9,-,N/A,,Overcast,180,2013-01-28 15:10:00
9:31 AM,59.0,57.2,94,30.29,5.0,South,5.8,-,N/A,,Overcast,190,2013-01-28 15:31:00
9:58 AM,60.1,59.0,96,30.30,5.0,South,4.6,-,N/A,,Overcast,180,2013-01-28 15:58:00
10:58 AM,62.1,57.9,86,30.29,8.0,South,9.2,-,N/A,,Overcast,190,2013-01-28 16:58:00
11:31 AM,62.6,57.2,82,30.28,8.0,SSW,10.4,-,N/A,,Overcast,200,2013-01-28 17:31:00
11:58 AM,63.0,57.9,84,30.26,9.0,South,9.2,-,N/A,,Overcast,190,2013-01-28 17:58:00
12:33 PM,64.4,57.2,77,30.25,10.0,South,8.1,-,N/A,,Overcast,180,2013-01-28 18:33:00
12:58 PM,64.9,57.9,78,30.23,10.0,South,8.1,-,N/A,,Overcast,180,2013-01-28 18:58:00
1:58 PM,66.0,57.9,75,30.21,10.0,South,10.4,-,N/A,,Overcast,170,2013-01-28 19:58:00
2:58 PM,66.0,57.9,75,30.19,10.0,South,9.2,-,N/A,,Overcast,180,2013-01-28 20:58:00
3:06 PM,66.2,57.2,73,30.20,10.0,South,9.2,-,N/A,,Overcast,170,2013-01-28 21:06:00
3:13 PM,66.2,57.2,73,30.20,10.0,South,10.4,-,N/A,,Overcast,180,2013-01-28 21:13:00
3:58 PM,66.9,59.0,76,30.19,10.0,South,8.1,-,N/A,,Overcast,170,2013-01-28 21:58:00
4:15 PM,66.2,57.2,73,30.19,10.0,South,8.1,-,N/A,,Scattered Clouds,180,2013-01-28 22:15:00
4:58 PM,66.0,59.0,78,30.18,10.0,Calm,Calm,-,N/A,,Clear,0,2013-01-28 22:58:00
5:58 PM,63.0,57.9,84,30.18,10.0,East,3.5,-,N/A,,Clear,100,2013-01-28 23:58:00
6:58 PM,55.9,55.0,97,30.17,6.0,Calm,Calm,-,N/A,,Clear,0,2013-01-29 00:58:00
7:58 PM,54.0,54.0,100,30.17,6.0,Calm,Calm,-,N/A,,Clear,0,2013-01-29 01:58:00
8:58 PM,62.1,57.9,86,30.16,10.0,SSE,8.1,-,N/A,,Clear,150,2013-01-29 02:58:00
9:58 PM,62.1,57.9,86,30.15,10.0,South,8.1,-,N/A,,Clear,170,2013-01-29 03:58:00
10:58 PM,61.0,57.9,90,30.15,10.0,South,5.8,-,N/A,,Clear,170,2013-01-29 04:58:00
11:41 PM,60.8,60.8,100,30.15,8.0,South,8.1,-,N/A,,Mostly Cloudy,170,2013-01-29 05:41:00
11:58 PM,61.0,60.1,97,30.15,7.0,South,8.1,-,N/A,,Mostly Cloudy,180,2013-01-29 05:58:00